sensor_id;sensor_type;location;lat;lon;timestamp;temperature;humidity
49489;SHT31;35382;51.484;11.476;2023-06-14T00:01:04;12.65;71.25
49489;SHT31;35382;51.484;11.476;2023-06-14T00:02:47;12.69;71.21
49489;SHT31;35382;51.484;11.476;2023-06-14T00:04:28;12.60;70.99
49489;SHT31;35382;51.484;11.476;2023-06-14T00:06:09;12.61;70.98
49489;SHT31;35382;51.484;11.476;2023-06-14T00:07:50;12.48;72.38
49489;SHT31;35382;51.484;11.476;2023-06-14T00:09:34;12.42;71.77
49489;SHT31;35382;51.484;11.476;2023-06-14T00:11:15;12.50;71.68
49489;SHT31;35382;51.484;11.476;2023-06-14T00:12:56;12.62;71.14
49489;SHT31;35382;51.484;11.476;2023-06-14T00:14:37;12.71;70.60
49489;SHT31;35382;51.484;11.476;2023-06-14T00:16:18;12.69;70.78
49489;SHT31;35382;51.484;11.476;2023-06-14T00:18:00;12.68;70.70
49489;SHT31;35382;51.484;11.476;2023-06-14T00:19:41;12.77;70.45
49489;SHT31;35382;51.484;11.476;2023-06-14T00:21:22;12.84;70.11
49489;SHT31;35382;51.484;11.476;2023-06-14T00:23:03;12.65;70.47
49489;SHT31;35382;51.484;11.476;2023-06-14T00:24:44;12.75;70.37
49489;SHT31;35382;51.484;11.476;2023-06-14T00:26:25;12.65;70.98
49489;SHT31;35382;51.484;11.476;2023-06-14T00:28:06;12.51;71.15
49489;SHT31;35382;51.484;11.476;2023-06-14T00:29:49;12.40;71.38
49489;SHT31;35382;51.484;11.476;2023-06-14T00:31:30;12.48;71.39
49489;SHT31;35382;51.484;11.476;2023-06-14T00:33:11;12.42;71.64
49489;SHT31;35382;51.484;11.476;2023-06-14T00:34:52;12.54;71.05
49489;SHT31;35382;51.484;11.476;2023-06-14T00:36:33;12.42;71.44
49489;SHT31;35382;51.484;11.476;2023-06-14T00:38:14;12.41;71.95
49489;SHT31;35382;51.484;11.476;2023-06-14T00:39:55;12.24;72.47
49489;SHT31;35382;51.484;11.476;2023-06-14T00:41:36;12.08;72.80
49489;SHT31;35382;51.484;11.476;2023-06-14T00:43:17;11.82;73.46
49489;SHT31;35382;51.484;11.476;2023-06-14T00:44:59;11.90;73.48
49489;SHT31;35382;51.484;11.476;2023-06-14T00:46:40;11.73;74.07
49489;SHT31;35382;51.484;11.476;2023-06-14T00:48:22;11.84;73.44
49489;SHT31;35382;51.484;11.476;2023-06-14T00:50:06;11.82;73.29
49489;SHT31;35382;51.484;11.476;2023-06-14T00:51:47;11.91;73.16
49489;SHT31;35382;51.484;11.476;2023-06-14T00:53:28;11.90;73.24
49489;SHT31;35382;51.484;11.476;2023-06-14T00:55:10;11.93;73.13
49489;SHT31;35382;51.484;11.476;2023-06-14T00:56:51;12.01;72.88
49489;SHT31;35382;51.484;11.476;2023-06-14T00:58:33;12.03;72.64
49489;SHT31;35382;51.484;11.476;2023-06-14T01:00:14;12.06;72.88
49489;SHT31;35382;51.484;11.476;2023-06-14T01:01:55;12.04;72.68
49489;SHT31;35382;51.484;11.476;2023-06-14T01:03:36;12.04;72.70
49489;SHT31;35382;51.484;11.476;2023-06-14T01:05:18;11.97;72.81
49489;SHT31;35382;51.484;11.476;2023-06-14T01:11:02;12.08;72.30
49489;SHT31;35382;51.484;11.476;2023-06-14T01:12:58;11.91;73.12
49489;SHT31;35382;51.484;11.476;2023-06-14T01:14:41;11.83;73.40
49489;SHT31;35382;51.484;11.476;2023-06-14T01:16:22;11.89;73.23
49489;SHT31;35382;51.484;11.476;2023-06-14T01:18:04;11.66;74.13
49489;SHT31;35382;51.484;11.476;2023-06-14T01:19:45;11.44;74.95
49489;SHT31;35382;51.484;11.476;2023-06-14T01:21:28;11.56;74.27
49489;SHT31;35382;51.484;11.476;2023-06-14T01:23:13;11.67;73.85
49489;SHT31;35382;51.484;11.476;2023-06-14T01:24:54;11.69;73.92
49489;SHT31;35382;51.484;11.476;2023-06-14T01:26:35;11.49;74.43
49489;SHT31;35382;51.484;11.476;2023-06-14T01:28:20;11.47;74.44
49489;SHT31;35382;51.484;11.476;2023-06-14T01:30:01;11.35;74.99
49489;SHT31;35382;51.484;11.476;2023-06-14T01:31:43;11.38;75.08
49489;SHT31;35382;51.484;11.476;2023-06-14T01:33:27;11.35;75.25
49489;SHT31;35382;51.484;11.476;2023-06-14T01:35:08;11.36;75.15
49489;SHT31;35382;51.484;11.476;2023-06-14T01:36:49;11.39;75.07
49489;SHT31;35382;51.484;11.476;2023-06-14T01:38:31;11.32;75.43
49489;SHT31;35382;51.484;11.476;2023-06-14T01:40:14;11.60;74.53
49489;SHT31;35382;51.484;11.476;2023-06-14T01:41:55;11.62;74.73
49489;SHT31;35382;51.484;11.476;2023-06-14T01:43:39;11.58;74.64
49489;SHT31;35382;51.484;11.476;2023-06-14T01:45:21;11.59;74.75
49489;SHT31;35382;51.484;11.476;2023-06-14T01:47:02;11.58;75.10
49489;SHT31;35382;51.484;11.476;2023-06-14T01:48:47;11.50;75.16
49489;SHT31;35382;51.484;11.476;2023-06-14T01:50:31;11.47;75.59
49489;SHT31;35382;51.484;11.476;2023-06-14T01:52:12;11.44;75.22
49489;SHT31;35382;51.484;11.476;2023-06-14T01:53:54;11.39;75.76
49489;SHT31;35382;51.484;11.476;2023-06-14T01:55:36;11.47;75.60
49489;SHT31;35382;51.484;11.476;2023-06-14T01:57:21;11.56;75.12
49489;SHT31;35382;51.484;11.476;2023-06-14T01:59:03;11.58;75.58
49489;SHT31;35382;51.484;11.476;2023-06-14T02:00:44;11.59;75.17
49489;SHT31;35382;51.484;11.476;2023-06-14T02:02:25;11.52;75.97
49489;SHT31;35382;51.484;11.476;2023-06-14T02:04:07;11.56;75.59
49489;SHT31;35382;51.484;11.476;2023-06-14T02:05:48;11.55;75.61
49489;SHT31;35382;51.484;11.476;2023-06-14T02:07:29;11.55;75.86
49489;SHT31;35382;51.484;11.476;2023-06-14T02:09:10;11.69;75.20
49489;SHT31;35382;51.484;11.476;2023-06-14T02:10:51;12.01;74.03
49489;SHT31;35382;51.484;11.476;2023-06-14T02:12:32;11.82;74.68
49489;SHT31;35382;51.484;11.476;2023-06-14T02:14:13;11.80;75.20
49489;SHT31;35382;51.484;11.476;2023-06-14T02:15:55;11.76;75.19
49489;SHT31;35382;51.484;11.476;2023-06-14T02:17:36;11.62;76.06
49489;SHT31;35382;51.484;11.476;2023-06-14T02:19:20;11.66;75.68
49489;SHT31;35382;51.484;11.476;2023-06-14T02:21:02;11.76;75.42
49489;SHT31;35382;51.484;11.476;2023-06-14T02:22:43;11.80;75.13
49489;SHT31;35382;51.484;11.476;2023-06-14T02:24:24;11.76;75.00
49489;SHT31;35382;51.484;11.476;2023-06-14T02:26:05;11.63;75.80
49489;SHT31;35382;51.484;11.476;2023-06-14T02:27:48;11.49;75.97
49489;SHT31;35382;51.484;11.476;2023-06-14T02:29:29;11.73;75.17
49489;SHT31;35382;51.484;11.476;2023-06-14T02:31:10;11.86;74.65
49489;SHT31;35382;51.484;11.476;2023-06-14T02:32:51;11.83;74.70
49489;SHT31;35382;51.484;11.476;2023-06-14T02:34:34;11.84;74.76
49489;SHT31;35382;51.484;11.476;2023-06-14T02:36:15;11.73;75.10
49489;SHT31;35382;51.484;11.476;2023-06-14T02:37:56;11.86;74.64
49489;SHT31;35382;51.484;11.476;2023-06-14T02:39:37;11.76;75.13
49489;SHT31;35382;51.484;11.476;2023-06-14T02:41:18;11.65;75.25
49489;SHT31;35382;51.484;11.476;2023-06-14T02:42:59;11.84;75.04
49489;SHT31;35382;51.484;11.476;2023-06-14T02:44:40;11.76;75.27
49489;SHT31;35382;51.484;11.476;2023-06-14T02:46:21;11.76;75.31
49489;SHT31;35382;51.484;11.476;2023-06-14T02:48:04;11.74;75.57
49489;SHT31;35382;51.484;11.476;2023-06-14T02:49:45;11.69;75.86
49489;SHT31;35382;51.484;11.476;2023-06-14T02:51:28;11.76;75.37
49489;SHT31;35382;51.484;11.476;2023-06-14T02:53:09;11.67;75.63
49489;SHT31;35382;51.484;11.476;2023-06-14T02:54:51;11.70;75.19
49489;SHT31;35382;51.484;11.476;2023-06-14T02:56:32;11.76;75.18
49489;SHT31;35382;51.484;11.476;2023-06-14T02:58:14;11.79;75.59
49489;SHT31;35382;51.484;11.476;2023-06-14T02:59:55;11.82;75.04
49489;SHT31;35382;51.484;11.476;2023-06-14T03:01:36;11.74;75.60
49489;SHT31;35382;51.484;11.476;2023-06-14T03:03:22;11.67;76.27
49489;SHT31;35382;51.484;11.476;2023-06-14T03:05:07;11.72;75.42
49489;SHT31;35382;51.484;11.476;2023-06-14T03:06:49;11.60;76.19
49489;SHT31;35382;51.484;11.476;2023-06-14T03:08:33;11.49;77.09
49489;SHT31;35382;51.484;11.476;2023-06-14T03:10:22;11.53;77.05
49489;SHT31;35382;51.484;11.476;2023-06-14T03:12:05;11.65;76.24
49489;SHT31;35382;51.484;11.476;2023-06-14T03:13:51;11.67;76.24
49489;SHT31;35382;51.484;11.476;2023-06-14T03:15:32;11.56;76.47
49489;SHT31;35382;51.484;11.476;2023-06-14T03:17:14;11.50;76.85
49489;SHT31;35382;51.484;11.476;2023-06-14T03:18:56;11.43;76.85
49489;SHT31;35382;51.484;11.476;2023-06-14T03:20:39;11.42;77.13
49489;SHT31;35382;51.484;11.476;2023-06-14T03:22:21;11.44;76.75
49489;SHT31;35382;51.484;11.476;2023-06-14T03:24:02;11.42;77.10
49489;SHT31;35382;51.484;11.476;2023-06-14T03:25:44;11.38;77.16
49489;SHT31;35382;51.484;11.476;2023-06-14T03:27:27;11.36;77.29
49489;SHT31;35382;51.484;11.476;2023-06-14T03:29:09;11.50;76.67
49489;SHT31;35382;51.484;11.476;2023-06-14T03:30:51;11.46;76.62
49489;SHT31;35382;51.484;11.476;2023-06-14T03:32:33;11.47;76.98
49489;SHT31;35382;51.484;11.476;2023-06-14T03:34:14;11.38;77.40
49489;SHT31;35382;51.484;11.476;2023-06-14T03:35:56;11.52;77.11
49489;SHT31;35382;51.484;11.476;2023-06-14T03:37:38;11.58;76.77
49489;SHT31;35382;51.484;11.476;2023-06-14T03:39:19;11.50;76.70
49489;SHT31;35382;51.484;11.476;2023-06-14T03:41:00;11.53;77.20
49489;SHT31;35382;51.484;11.476;2023-06-14T03:42:41;11.28;78.20
49489;SHT31;35382;51.484;11.476;2023-06-14T03:44:22;11.35;77.66
49489;SHT31;35382;51.484;11.476;2023-06-14T03:46:03;11.32;77.93
49489;SHT31;35382;51.484;11.476;2023-06-14T03:47:47;11.47;77.61
49489;SHT31;35382;51.484;11.476;2023-06-14T03:49:28;11.58;77.39
49489;SHT31;35382;51.484;11.476;2023-06-14T03:51:09;11.66;76.69
49489;SHT31;35382;51.484;11.476;2023-06-14T03:52:52;11.96;75.81
49489;SHT31;35382;51.484;11.476;2023-06-14T03:54:34;12.20;75.16
49489;SHT31;35382;51.484;11.476;2023-06-14T03:56:15;12.23;75.28
49489;SHT31;35382;51.484;11.476;2023-06-14T03:57:58;12.37;74.58
49489;SHT31;35382;51.484;11.476;2023-06-14T03:59:39;12.60;73.85
49489;SHT31;35382;51.484;11.476;2023-06-14T04:01:20;12.36;74.73
49489;SHT31;35382;51.484;11.476;2023-06-14T04:03:02;12.14;75.25
49489;SHT31;35382;51.484;11.476;2023-06-14T04:04:45;12.07;75.45
49489;SHT31;35382;51.484;11.476;2023-06-14T04:06:26;11.90;76.13
49489;SHT31;35382;51.484;11.476;2023-06-14T04:08:13;11.79;77.00
49489;SHT31;35382;51.484;11.476;2023-06-14T04:09:55;11.83;76.97
49489;SHT31;35382;51.484;11.476;2023-06-14T04:11:36;12.26;75.94
49489;SHT31;35382;51.484;11.476;2023-06-14T04:13:17;12.75;74.41
49489;SHT31;35382;51.484;11.476;2023-06-14T04:14:58;13.08;72.52
49489;SHT31;35382;51.484;11.476;2023-06-14T04:16:39;13.11;72.92
49489;SHT31;35382;51.484;11.476;2023-06-14T04:18:20;13.34;72.35
49489;SHT31;35382;51.484;11.476;2023-06-14T04:20:02;13.58;71.17
49489;SHT31;35382;51.484;11.476;2023-06-14T04:21:46;13.56;70.79
49489;SHT31;35382;51.484;11.476;2023-06-14T04:23:29;13.76;70.57
49489;SHT31;35382;51.484;11.476;2023-06-14T04:25:10;13.87;70.81
49489;SHT31;35382;51.484;11.476;2023-06-14T04:26:53;13.65;70.96
49489;SHT31;35382;51.484;11.476;2023-06-14T04:28:35;13.58;71.56
49489;SHT31;35382;51.484;11.476;2023-06-14T04:30:21;14.09;70.10
49489;SHT31;35382;51.484;11.476;2023-06-14T04:32:09;14.05;70.33
49489;SHT31;35382;51.484;11.476;2023-06-14T04:33:52;14.27;69.64
49489;SHT31;35382;51.484;11.476;2023-06-14T04:35:36;14.18;69.78
49489;SHT31;35382;51.484;11.476;2023-06-14T04:37:18;14.30;69.65
49489;SHT31;35382;51.484;11.476;2023-06-14T04:39:00;14.56;68.77
49489;SHT31;35382;51.484;11.476;2023-06-14T04:40:44;14.60;68.66
49489;SHT31;35382;51.484;11.476;2023-06-14T04:42:29;14.84;68.91
49489;SHT31;35382;51.484;11.476;2023-06-14T04:44:12;14.95;68.29
49489;SHT31;35382;51.484;11.476;2023-06-14T04:45:57;14.95;67.85
49489;SHT31;35382;51.484;11.476;2023-06-14T04:47:38;14.84;68.54
49489;SHT31;35382;51.484;11.476;2023-06-14T04:49:21;15.07;67.58
49489;SHT31;35382;51.484;11.476;2023-06-14T04:51:04;15.08;68.26
49489;SHT31;35382;51.484;11.476;2023-06-14T04:52:45;15.21;67.90
49489;SHT31;35382;51.484;11.476;2023-06-14T04:54:26;15.27;67.86
49489;SHT31;35382;51.484;11.476;2023-06-14T04:56:07;15.35;67.48
49489;SHT31;35382;51.484;11.476;2023-06-14T04:57:48;15.36;67.56
49489;SHT31;35382;51.484;11.476;2023-06-14T04:59:29;15.55;67.17
49489;SHT31;35382;51.484;11.476;2023-06-14T05:01:14;15.49;67.03
49489;SHT31;35382;51.484;11.476;2023-06-14T05:02:55;15.95;66.40
49489;SHT31;35382;51.484;11.476;2023-06-14T05:04:38;15.90;65.49
49489;SHT31;35382;51.484;11.476;2023-06-14T05:06:20;15.76;65.62
49489;SHT31;35382;51.484;11.476;2023-06-14T05:08:02;15.51;66.31
49489;SHT31;35382;51.484;11.476;2023-06-14T05:09:46;15.76;65.75
49489;SHT31;35382;51.484;11.476;2023-06-14T05:11:28;15.75;65.05
49489;SHT31;35382;51.484;11.476;2023-06-14T05:13:08;15.86;64.89
49489;SHT31;35382;51.484;11.476;2023-06-14T05:14:53;15.76;65.67
49489;SHT31;35382;51.484;11.476;2023-06-14T05:16:36;15.97;66.06
49489;SHT31;35382;51.484;11.476;2023-06-14T05:18:17;15.89;65.80
49489;SHT31;35382;51.484;11.476;2023-06-14T05:19:58;16.14;65.05
49489;SHT31;35382;51.484;11.476;2023-06-14T05:21:39;16.09;65.30
49489;SHT31;35382;51.484;11.476;2023-06-14T05:23:20;16.21;64.68
49489;SHT31;35382;51.484;11.476;2023-06-14T05:25:02;16.19;64.58
49489;SHT31;35382;51.484;11.476;2023-06-14T05:26:43;16.09;64.87
49489;SHT31;35382;51.484;11.476;2023-06-14T05:28:24;16.13;64.56
49489;SHT31;35382;51.484;11.476;2023-06-14T05:30:05;16.23;64.94
49489;SHT31;35382;51.484;11.476;2023-06-14T05:31:50;16.47;64.16
49489;SHT31;35382;51.484;11.476;2023-06-14T05:33:31;16.56;64.17
49489;SHT31;35382;51.484;11.476;2023-06-14T05:35:16;16.71;64.10
49489;SHT31;35382;51.484;11.476;2023-06-14T05:36:57;16.88;63.36
49489;SHT31;35382;51.484;11.476;2023-06-14T05:38:38;17.04;63.65
49489;SHT31;35382;51.484;11.476;2023-06-14T05:40:19;16.84;63.43
49489;SHT31;35382;51.484;11.476;2023-06-14T05:42:00;17.05;63.65
49489;SHT31;35382;51.484;11.476;2023-06-14T05:43:44;17.00;63.69
49489;SHT31;35382;51.484;11.476;2023-06-14T05:45:25;17.21;63.00
49489;SHT31;35382;51.484;11.476;2023-06-14T05:47:06;17.03;62.48
49489;SHT31;35382;51.484;11.476;2023-06-14T05:48:47;17.18;62.90
49489;SHT31;35382;51.484;11.476;2023-06-14T05:50:27;16.87;62.69
49489;SHT31;35382;51.484;11.476;2023-06-14T05:52:09;16.89;62.89
49489;SHT31;35382;51.484;11.476;2023-06-14T05:53:54;17.08;63.05
49489;SHT31;35382;51.484;11.476;2023-06-14T05:55:35;17.15;63.03
49489;SHT31;35382;51.484;11.476;2023-06-14T05:57:17;17.35;63.58
49489;SHT31;35382;51.484;11.476;2023-06-14T05:58:57;17.38;63.17
49489;SHT31;35382;51.484;11.476;2023-06-14T06:00:39;17.48;62.24
49489;SHT31;35382;51.484;11.476;2023-06-14T06:02:20;17.61;61.90
49489;SHT31;35382;51.484;11.476;2023-06-14T06:04:02;17.59;62.61
49489;SHT31;35382;51.484;11.476;2023-06-14T06:05:42;17.92;61.74
49489;SHT31;35382;51.484;11.476;2023-06-14T06:07:23;17.86;61.41
49489;SHT31;35382;51.484;11.476;2023-06-14T06:09:04;18.02;61.75
49489;SHT31;35382;51.484;11.476;2023-06-14T06:10:45;17.95;61.93
49489;SHT31;35382;51.484;11.476;2023-06-14T06:12:26;17.97;61.44
49489;SHT31;35382;51.484;11.476;2023-06-14T06:14:09;18.17;61.30
49489;SHT31;35382;51.484;11.476;2023-06-14T06:15:52;17.93;61.27
49489;SHT31;35382;51.484;11.476;2023-06-14T06:17:33;18.00;61.86
49489;SHT31;35382;51.484;11.476;2023-06-14T06:19:16;17.99;61.44
49489;SHT31;35382;51.484;11.476;2023-06-14T06:20:57;17.92;61.14
49489;SHT31;35382;51.484;11.476;2023-06-14T06:22:38;18.30;61.54
49489;SHT31;35382;51.484;11.476;2023-06-14T06:24:19;18.32;60.79
49489;SHT31;35382;51.484;11.476;2023-06-14T06:26:03;18.17;60.66
49489;SHT31;35382;51.484;11.476;2023-06-14T06:27:44;18.63;60.66
49489;SHT31;35382;51.484;11.476;2023-06-14T06:29:26;18.65;60.06
49489;SHT31;35382;51.484;11.476;2023-06-14T06:31:07;18.56;60.24
49489;SHT31;35382;51.484;11.476;2023-06-14T06:32:48;18.85;59.59
49489;SHT31;35382;51.484;11.476;2023-06-14T06:34:29;18.65;59.79
49489;SHT31;35382;51.484;11.476;2023-06-14T06:36:10;18.63;59.99
49489;SHT31;35382;51.484;11.476;2023-06-14T06:37:53;18.83;59.87
49489;SHT31;35382;51.484;11.476;2023-06-14T06:39:34;18.70;60.24
49489;SHT31;35382;51.484;11.476;2023-06-14T06:41:15;18.84;59.66
49489;SHT31;35382;51.484;11.476;2023-06-14T06:42:56;19.04;60.00
49489;SHT31;35382;51.484;11.476;2023-06-14T06:44:41;18.93;59.54
49489;SHT31;35382;51.484;11.476;2023-06-14T06:46:22;19.12;58.99
49489;SHT31;35382;51.484;11.476;2023-06-14T06:48:03;19.19;59.17
49489;SHT31;35382;51.484;11.476;2023-06-14T06:49:51;19.35;58.85
49489;SHT31;35382;51.484;11.476;2023-06-14T06:51:35;19.27;58.17
49489;SHT31;35382;51.484;11.476;2023-06-14T06:53:23;19.45;59.92
49489;SHT31;35382;51.484;11.476;2023-06-14T06:55:04;19.66;58.51
49489;SHT31;35382;51.484;11.476;2023-06-14T06:56:47;19.42;59.26
49489;SHT31;35382;51.484;11.476;2023-06-14T06:58:28;19.66;59.36
49489;SHT31;35382;51.484;11.476;2023-06-14T07:00:10;19.73;58.56
49489;SHT31;35382;51.484;11.476;2023-06-14T07:01:55;19.93;59.15
49489;SHT31;35382;51.484;11.476;2023-06-14T07:03:36;20.02;58.72
49489;SHT31;35382;51.484;11.476;2023-06-14T07:05:17;20.13;58.23
49489;SHT31;35382;51.484;11.476;2023-06-14T07:06:58;20.19;57.72
49489;SHT31;35382;51.484;11.476;2023-06-14T07:08:39;20.46;58.82
49489;SHT31;35382;51.484;11.476;2023-06-14T07:10:20;20.29;57.26
49489;SHT31;35382;51.484;11.476;2023-06-14T07:12:04;20.41;57.19
49489;SHT31;35382;51.484;11.476;2023-06-14T07:13:47;20.53;57.47
49489;SHT31;35382;51.484;11.476;2023-06-14T07:15:28;20.22;56.63
49489;SHT31;35382;51.484;11.476;2023-06-14T07:17:09;20.30;57.34
49489;SHT31;35382;51.484;11.476;2023-06-14T07:18:51;20.19;56.49
49489;SHT31;35382;51.484;11.476;2023-06-14T07:20:33;20.04;57.09
49489;SHT31;35382;51.484;11.476;2023-06-14T07:22:16;20.30;57.09
49489;SHT31;35382;51.484;11.476;2023-06-14T07:23:57;20.36;57.26
49489;SHT31;35382;51.484;11.476;2023-06-14T07:25:38;20.12;57.31
49489;SHT31;35382;51.484;11.476;2023-06-14T07:27:20;20.47;56.25
49489;SHT31;35382;51.484;11.476;2023-06-14T07:29:01;20.56;56.47
49489;SHT31;35382;51.484;11.476;2023-06-14T07:30:42;20.40;55.99
49489;SHT31;35382;51.484;11.476;2023-06-14T07:32:24;20.74;57.91
49489;SHT31;35382;51.484;11.476;2023-06-14T07:34:05;20.77;55.72
49489;SHT31;35382;51.484;11.476;2023-06-14T07:35:48;20.62;55.13
49489;SHT31;35382;51.484;11.476;2023-06-14T07:37:30;20.72;55.44
49489;SHT31;35382;51.484;11.476;2023-06-14T07:39:12;20.72;55.13
49489;SHT31;35382;51.484;11.476;2023-06-14T07:40:53;20.60;54.75
49489;SHT31;35382;51.484;11.476;2023-06-14T07:42:34;20.83;53.99
49489;SHT31;35382;51.484;11.476;2023-06-14T07:44:17;20.60;54.20
49489;SHT31;35382;51.484;11.476;2023-06-14T07:45:58;20.69;54.53
49489;SHT31;35382;51.484;11.476;2023-06-14T07:47:39;20.79;53.42
49489;SHT31;35382;51.484;11.476;2023-06-14T07:49:20;20.63;54.60
49489;SHT31;35382;51.484;11.476;2023-06-14T07:51:01;20.44;54.59
49489;SHT31;35382;51.484;11.476;2023-06-14T07:52:48;20.76;55.08
49489;SHT31;35382;51.484;11.476;2023-06-14T07:54:31;21.04;54.72
49489;SHT31;35382;51.484;11.476;2023-06-14T07:56:13;21.15;54.56
49489;SHT31;35382;51.484;11.476;2023-06-14T07:57:56;21.62;54.28
49489;SHT31;35382;51.484;11.476;2023-06-14T07:59:40;20.66;54.01
49489;SHT31;35382;51.484;11.476;2023-06-14T08:01:21;20.94;53.95
49489;SHT31;35382;51.484;11.476;2023-06-14T08:03:05;21.04;52.96
49489;SHT31;35382;51.484;11.476;2023-06-14T08:04:49;20.98;52.76
49489;SHT31;35382;51.484;11.476;2023-06-14T08:06:30;21.15;51.11
49489;SHT31;35382;51.484;11.476;2023-06-14T08:08:11;21.18;51.02
49489;SHT31;35382;51.484;11.476;2023-06-14T08:09:52;21.06;52.44
49489;SHT31;35382;51.484;11.476;2023-06-14T08:11:34;21.52;52.94
49489;SHT31;35382;51.484;11.476;2023-06-14T08:13:15;20.66;51.77
49489;SHT31;35382;51.484;11.476;2023-06-14T08:14:56;21.08;51.60
49489;SHT31;35382;51.484;11.476;2023-06-14T08:16:39;21.30;52.36
49489;SHT31;35382;51.484;11.476;2023-06-14T08:18:20;21.51;51.68
49489;SHT31;35382;51.484;11.476;2023-06-14T08:20:03;21.26;50.38
49489;SHT31;35382;51.484;11.476;2023-06-14T08:21:46;21.45;51.20
49489;SHT31;35382;51.484;11.476;2023-06-14T08:23:28;20.97;52.22
49489;SHT31;35382;51.484;11.476;2023-06-14T08:25:09;20.12;54.46
49489;SHT31;35382;51.484;11.476;2023-06-14T08:26:50;21.12;52.98
49489;SHT31;35382;51.484;11.476;2023-06-14T08:28:31;21.40;53.19
49489;SHT31;35382;51.484;11.476;2023-06-14T08:30:12;21.59;53.40
49489;SHT31;35382;51.484;11.476;2023-06-14T08:31:53;21.75;50.36
49489;SHT31;35382;51.484;11.476;2023-06-14T08:33:34;21.28;51.70
49489;SHT31;35382;51.484;11.476;2023-06-14T08:35:15;21.52;49.56
49489;SHT31;35382;51.484;11.476;2023-06-14T08:36:56;21.35;51.02
49489;SHT31;35382;51.484;11.476;2023-06-14T08:38:37;21.40;49.43
49489;SHT31;35382;51.484;11.476;2023-06-14T08:40:20;21.75;50.44
49489;SHT31;35382;51.484;11.476;2023-06-14T08:42:03;22.02;50.13
49489;SHT31;35382;51.484;11.476;2023-06-14T08:43:44;22.06;50.32
49489;SHT31;35382;51.484;11.476;2023-06-14T08:45:25;22.05;50.84
49489;SHT31;35382;51.484;11.476;2023-06-14T08:47:07;22.26;50.81
49489;SHT31;35382;51.484;11.476;2023-06-14T08:48:49;22.48;49.99
49489;SHT31;35382;51.484;11.476;2023-06-14T08:50:32;22.18;48.29
49489;SHT31;35382;51.484;11.476;2023-06-14T08:52:13;22.43;48.69
49489;SHT31;35382;51.484;11.476;2023-06-14T08:53:55;22.45;48.51
49489;SHT31;35382;51.484;11.476;2023-06-14T08:55:38;22.53;49.73
49489;SHT31;35382;51.484;11.476;2023-06-14T08:57:20;22.94;49.94
49489;SHT31;35382;51.484;11.476;2023-06-14T08:59:02;23.11;48.43
49489;SHT31;35382;51.484;11.476;2023-06-14T09:00:47;23.06;47.75
49489;SHT31;35382;51.484;11.476;2023-06-14T09:02:28;23.14;47.90
49489;SHT31;35382;51.484;11.476;2023-06-14T09:04:10;22.33;47.78
49489;SHT31;35382;51.484;11.476;2023-06-14T09:05:50;22.66;47.18
49489;SHT31;35382;51.484;11.476;2023-06-14T09:07:32;22.82;46.95
49489;SHT31;35382;51.484;11.476;2023-06-14T09:09:13;22.08;50.19
49489;SHT31;35382;51.484;11.476;2023-06-14T09:10:54;22.42;49.14
49489;SHT31;35382;51.484;11.476;2023-06-14T09:12:36;22.90;48.49
49489;SHT31;35382;51.484;11.476;2023-06-14T09:14:20;22.84;47.68
49489;SHT31;35382;51.484;11.476;2023-06-14T09:16:01;23.07;47.08
49489;SHT31;35382;51.484;11.476;2023-06-14T09:17:42;21.78;47.76
49489;SHT31;35382;51.484;11.476;2023-06-14T09:19:24;21.48;50.12
49489;SHT31;35382;51.484;11.476;2023-06-14T09:21:08;20.88;50.47
49489;SHT31;35382;51.484;11.476;2023-06-14T09:22:49;21.44;51.80
49489;SHT31;35382;51.484;11.476;2023-06-14T09:24:29;21.89;48.96
49489;SHT31;35382;51.484;11.476;2023-06-14T09:26:18;21.35;51.07
49489;SHT31;35382;51.484;11.476;2023-06-14T09:28:00;22.28;49.38
49489;SHT31;35382;51.484;11.476;2023-06-14T09:29:41;22.22;47.82
49489;SHT31;35382;51.484;11.476;2023-06-14T09:31:22;21.89;48.72
49489;SHT31;35382;51.484;11.476;2023-06-14T09:33:03;21.74;47.91
49489;SHT31;35382;51.484;11.476;2023-06-14T09:34:47;20.66;49.93
49489;SHT31;35382;51.484;11.476;2023-06-14T09:36:34;21.17;49.97
49489;SHT31;35382;51.484;11.476;2023-06-14T09:38:15;21.88;49.24
49489;SHT31;35382;51.484;11.476;2023-06-14T09:39:57;22.49;48.38
49489;SHT31;35382;51.484;11.476;2023-06-14T09:41:39;21.92;49.68
49489;SHT31;35382;51.484;11.476;2023-06-14T09:43:20;21.88;47.77
49489;SHT31;35382;51.484;11.476;2023-06-14T09:45:03;21.91;47.98
49489;SHT31;35382;51.484;11.476;2023-06-14T09:46:44;22.29;48.08
49489;SHT31;35382;51.484;11.476;2023-06-14T09:48:26;22.69;47.40
49489;SHT31;35382;51.484;11.476;2023-06-14T09:50:07;22.49;46.23
49489;SHT31;35382;51.484;11.476;2023-06-14T09:51:50;22.74;47.28
49489;SHT31;35382;51.484;11.476;2023-06-14T09:53:35;22.94;46.97
49489;SHT31;35382;51.484;11.476;2023-06-14T09:55:17;22.48;43.77
49489;SHT31;35382;51.484;11.476;2023-06-14T09:57:00;22.57;45.29
49489;SHT31;35382;51.484;11.476;2023-06-14T09:58:42;22.77;45.91
49489;SHT31;35382;51.484;11.476;2023-06-14T10:00:24;23.23;45.94
49489;SHT31;35382;51.484;11.476;2023-06-14T10:02:11;23.27;44.08
49489;SHT31;35382;51.484;11.476;2023-06-14T10:04:06;23.03;44.02
49489;SHT31;35382;51.484;11.476;2023-06-14T10:05:50;22.79;44.99
49489;SHT31;35382;51.484;11.476;2023-06-14T10:07:39;22.84;45.31
49489;SHT31;35382;51.484;11.476;2023-06-14T10:09:21;22.56;45.68
49489;SHT31;35382;51.484;11.476;2023-06-14T10:11:03;23.17;47.35
49489;SHT31;35382;51.484;11.476;2023-06-14T10:12:45;22.83;45.86
49489;SHT31;35382;51.484;11.476;2023-06-14T10:14:26;22.89;44.30
49489;SHT31;35382;51.484;11.476;2023-06-14T10:16:14;22.87;44.83
49489;SHT31;35382;51.484;11.476;2023-06-14T10:18:04;22.89;45.20
49489;SHT31;35382;51.484;11.476;2023-06-14T10:19:55;22.93;44.65
49489;SHT31;35382;51.484;11.476;2023-06-14T10:21:49;23.16;44.68
49489;SHT31;35382;51.484;11.476;2023-06-14T10:23:37;22.67;44.94
49489;SHT31;35382;51.484;11.476;2023-06-14T10:25:29;22.59;45.98
49489;SHT31;35382;51.484;11.476;2023-06-14T10:27:13;22.70;45.12
49489;SHT31;35382;51.484;11.476;2023-06-14T10:28:57;22.94;44.44
49489;SHT31;35382;51.484;11.476;2023-06-14T10:30:39;23.38;47.11
49489;SHT31;35382;51.484;11.476;2023-06-14T10:32:21;23.57;44.62
49489;SHT31;35382;51.484;11.476;2023-06-14T10:34:02;23.88;45.88
49489;SHT31;35382;51.484;11.476;2023-06-14T10:35:43;23.11;44.35
49489;SHT31;35382;51.484;11.476;2023-06-14T10:37:24;23.13;45.19
49489;SHT31;35382;51.484;11.476;2023-06-14T10:39:07;23.62;46.40